Ana Sayfa
METAR-TAF:

METAR-TAF

Havaalanları :

Carlsbad, New Mexico, Amerika Birleşik Devletleri

Enlem: 32-20-15N, Boylam: 104-15-48W, yükseklik: 1004 m

Güncel hava durumu gözlemi

Rapor saat 15:53 UTC de 27 dakika önce yapıldı.
Sakin rüzgar
Sıcaklık 5°C
Nem 75%
Basınç 1023 hPa
Görüş mesafesi: 16.1 km
Açık gökyüzü

METAR: KCNM 221553Z AUTO 00000KT 10SM CLR 05/01 A3022 RMK AO2 SLP226 T00500011

Saat: 09:20 (16:20 UTC)

Tahmin

Rapor saat 11:30 UTC de 4 saat ve 50 dakika önce yapıldı.
Ayın 22'si saat 12 UTC'den ayın 23'si saat 12 UTC'ye kadar geçerli Tahmin
Rüzgar değişken yönden 6 kt
Görüş mesafesi: 10 km
25000 ft yükseklikte parçalı çok bulutlu

TAF: KCNM 221130Z 2212/2312 VRB06KT P6SM BKN250

4.000'den fazla havaalanı için hava durumu gözlemleri ve tahminleri (METAR ve TAF raporları).

Kullanılabilir istasyonlar harita üzerinde sarı ve kırmızı noktalarla gösterilir.

İstasyonun adını görmek için fareyi noktanın üzerinde gezdirin.

Sonrasında hava gözlem ve tahminlerini görmek için tıklayın.

Haritayı değiştirmek için: yaklaştırmak için siyah artı işaretli yeşil düğmeye ve uzaklaştırmak için de eksi işaretli düğmeye hızla tıklayın; bitişik haritalar için yeşil okları kullanın.


METAR-TAF: